Magrath, Canada
Current Conditions -  °F | °C
As of 9:00 PM on Saturday 25 Oct 2014 (Local Time) from CYQL Reporting Station
Few Clouds Few Clouds  
Wind Chill: 31°   Ceiling: Unl
Heat Index: 37°   Visibility: 15mi
Dew Point: 34°   Wind: 9mph
Humidity: 87%   Direction: 160°SSE
Pressure: 29.56"   Gusts: NA
Location:  49.42°N, 112.87°W
Report Text: CYQL 260300Z 16008KT 15SM FEW130 03/01 A2956 RMK AC2 SLP033
Loading
Personal Weather Stations






























Interactive Weather Map
Tropical Storm Tracking
New forecast layout! Learn more

10-Day Weather Forecast

Advertisements
Track Severe Weather on mobile